Aeroporto :
LOGIN :

Iscrizione | Disclaimer

   EN    FR    IT 

 










Sommario :    VFR   VFR Marginale   IFR   IFR Intensivo   IFR Molto Intensivo
Visibilità : 
Base nubi : 
>= 8 km
>= 3000ft
5 / 8 km
1000 / 3000 ft
1500m / 5 km
500 / 1000 ft
800 / 1500m
200 / 500 ft
< 800m
< 200 ft
Simboli :   Temporali  Nebbia  Neve Forte  Precipitazioni Forti  Vento > 20 kt
SIGMETs :   Varie  Temporali  Ghiacco  Turbolenza  Onda orograficha  Ceneri Vulcaniche






- Altitudine del aeroporto : 1276 ft
- Codice IATA : STR


EDDS - Stuttgart

ULTIMO METAR :
  • 180650Z 23008KT 190V260 9999 FEW040 04/01 Q1026 NOSIG

METARs OBSOLETI :
  • 180620Z 23008KT 190V270 9999 FEW040 04/01 Q1026 NOSIG
  • 180550Z 22006KT 190V260 CAVOK 04/01 Q1025 NOSIG
  • 180520Z 24008KT 210V270 CAVOK 04/01 Q1025
  • 180450Z 24007KT 200V300 CAVOK 04/01 Q1025
  • 180420Z 23005KT 190V260 9999 FEW018 04/02 Q1025

TAF TAF EDDS
Valido dal 18 a 06 ore il 19 a 06 ore UTC


180500Z 1806/1906 22007KT 9999 SCT035
PROB30
TEMPO 1811/1816 24015G25KT
TEMPO 1903/1906 26015G25KT SHRA BKN025CB



MetMap, La meteo Aeronautica in un colpo d'occhio ! - Copyright ORBIFLY Dicembre 2007 - Disclaimer

ORBIFLY MET'MAP TEAM :

Programmazione e sviluppo : Alexandra Zaïnal
Concezione : Baudouin d'Aumeries
Aiuto per la programmazione : Marc-Olivier Méhu
Supporto tecnico e logistico : Manuel Goepfert
Aiuto per la traduzione : Arnaldo La Scala

Contatto : metmap@orbifly.com




FONTI E CREDITI :

   NOAA